createdAt,value
2018-08-16T00:01:34.242Z,13.30
2018-08-16T00:04:05.245Z,13.30
2018-08-16T00:06:35.669Z,13.30
2018-08-16T00:09:06.548Z,13.30
2018-08-16T00:11:36.507Z,13.30
2018-08-16T00:14:06.028Z,13.30
2018-08-16T00:16:36.136Z,13.20
2018-08-16T00:19:07.084Z,13.20
2018-08-16T00:21:36.785Z,13.20
2018-08-16T00:24:06.432Z,13.20
2018-08-16T00:26:36.361Z,13.20
2018-08-16T00:29:05.983Z,13.10
2018-08-16T00:31:36.299Z,13.10
2018-08-16T00:34:05.997Z,13.10
2018-08-16T00:36:35.863Z,13.10
2018-08-16T00:39:07.099Z,13.10
2018-08-16T00:41:36.448Z,13.00
2018-08-16T00:44:06.216Z,13.00
2018-08-16T00:46:35.679Z,13.00
2018-08-16T00:49:05.688Z,13.00
2018-08-16T00:51:35.943Z,12.90
2018-08-16T00:54:06.098Z,12.90
2018-08-16T00:56:36.076Z,12.90
2018-08-16T00:59:06.208Z,12.90
2018-08-16T01:01:36.080Z,12.90
2018-08-16T01:04:05.619Z,12.90
2018-08-16T01:06:35.493Z,12.90
2018-08-16T01:09:06.702Z,12.80
2018-08-16T01:11:36.721Z,12.80
2018-08-16T01:14:07.639Z,12.80
2018-08-16T01:16:37.049Z,12.80
2018-08-16T01:19:06.751Z,12.80
2018-08-16T01:21:36.671Z,12.80
2018-08-16T01:24:06.632Z,12.80
2018-08-16T01:26:36.663Z,12.70
2018-08-16T01:29:06.348Z,12.70
2018-08-16T01:31:36.234Z,12.70
2018-08-16T01:34:05.821Z,12.70
2018-08-16T01:36:35.478Z,12.70
2018-08-16T01:39:05.792Z,12.70
2018-08-16T01:41:35.323Z,12.60
2018-08-16T01:44:05.247Z,12.60
2018-08-16T01:46:35.178Z,12.60
2018-08-16T01:49:06.434Z,12.60
2018-08-16T01:51:36.503Z,12.60
2018-08-16T01:54:06.626Z,12.60
2018-08-16T01:56:37.127Z,12.60
2018-08-16T01:59:07.365Z,12.60
2018-08-16T02:01:37.960Z,12.60
2018-08-16T02:04:07.206Z,12.50
2018-08-16T02:06:36.706Z,12.50
2018-08-16T02:09:08.059Z,12.50
2018-08-16T02:11:37.724Z,12.40
2018-08-16T02:14:07.754Z,12.40
2018-08-16T02:16:37.286Z,12.40
2018-08-16T02:19:06.919Z,12.40
2018-08-16T02:21:36.908Z,12.40
2018-08-16T02:24:06.587Z,12.40
2018-08-16T02:26:36.185Z,12.40
2018-08-16T02:29:05.552Z,12.30
2018-08-16T02:31:35.106Z,12.30
2018-08-16T02:34:05.010Z,12.30
2018-08-16T02:36:34.509Z,12.30
2018-08-16T02:39:05.260Z,12.30
2018-08-16T02:41:35.497Z,12.30
2018-08-16T02:44:05.228Z,12.30
2018-08-16T02:46:35.405Z,12.20
2018-08-16T02:49:05.277Z,12.20
2018-08-16T02:51:35.351Z,12.20
2018-08-16T02:54:05.979Z,12.20
2018-08-16T02:56:35.556Z,12.20
2018-08-16T02:59:05.291Z,12.20
2018-08-16T03:01:35.272Z,12.20
2018-08-16T03:04:05.310Z,12.20
2018-08-16T03:06:34.985Z,12.10
2018-08-16T03:09:04.584Z,12.10
2018-08-16T03:11:34.043Z,12.10
2018-08-16T03:14:04.412Z,12.10
2018-08-16T03:16:34.109Z,12.00
2018-08-16T03:19:03.941Z,12.00
2018-08-16T03:21:33.848Z,12.00
2018-08-16T03:24:03.758Z,12.00
2018-08-16T03:26:33.939Z,12.00
2018-08-16T03:29:04.126Z,12.00
2018-08-16T03:31:33.911Z,12.00
2018-08-16T03:34:03.776Z,11.90
2018-08-16T03:36:34.203Z,12.00
2018-08-16T03:39:05.500Z,11.90
2018-08-16T03:41:36.071Z,11.90
2018-08-16T03:44:06.452Z,11.90
2018-08-16T03:46:36.206Z,11.90
2018-08-16T03:49:06.268Z,11.90
2018-08-16T03:51:36.199Z,11.80
2018-08-16T03:54:05.892Z,11.80
2018-08-16T03:56:35.623Z,11.80
2018-08-16T03:59:05.429Z,11.80
2018-08-16T04:01:35.654Z,11.80
2018-08-16T04:04:05.726Z,11.80
2018-08-16T04:06:35.796Z,11.80
2018-08-16T04:09:06.928Z,11.80
2018-08-16T04:11:36.795Z,11.90
2018-08-16T04:14:06.536Z,11.90
2018-08-16T04:16:35.915Z,11.90
2018-08-16T04:19:05.893Z,11.90
2018-08-16T04:21:36.148Z,11.90
2018-08-16T04:24:06.093Z,11.90
2018-08-16T04:26:35.833Z,12.00
2018-08-16T04:29:05.269Z,12.00
2018-08-16T04:31:34.631Z,12.00
2018-08-16T04:34:04.253Z,12.10
2018-08-16T04:36:33.659Z,12.10
2018-08-16T04:39:03.401Z,12.20
2018-08-16T04:41:33.229Z,12.30
2018-08-16T04:44:02.913Z,12.30
2018-08-16T04:46:32.701Z,12.40
2018-08-16T04:49:02.545Z,12.50
2018-08-16T04:51:32.422Z,12.60
2018-08-16T04:54:02.274Z,12.70
2018-08-16T04:56:31.867Z,12.80
2018-08-16T04:59:01.789Z,13.00
2018-08-16T05:01:31.244Z,13.20
2018-08-16T05:04:00.807Z,13.30
2018-08-16T05:06:30.512Z,13.40
2018-08-16T05:09:00.133Z,13.50
2018-08-16T05:11:29.603Z,13.70
2018-08-16T05:13:59.287Z,13.80
2018-08-16T05:16:28.755Z,14.00
2018-08-16T05:18:58.266Z,14.10
2018-08-16T05:21:28.151Z,14.40
2018-08-16T05:23:58.259Z,14.60
2018-08-16T05:26:28.394Z,14.80
2018-08-16T05:28:58.408Z,15.00
2018-08-16T05:31:28.220Z,15.10
2018-08-16T05:33:57.936Z,15.30
2018-08-16T05:36:27.832Z,15.40
2018-08-16T05:38:57.441Z,15.50
2018-08-16T05:41:27.616Z,15.70
2018-08-16T05:43:57.075Z,15.90
2018-08-16T05:46:27.737Z,16.10
2018-08-16T05:48:57.505Z,16.40
2018-08-16T05:51:29.256Z,16.60
2018-08-16T05:56:58.664Z,17.00
2018-08-16T05:59:29.240Z,17.10
2018-08-16T06:02:01.100Z,17.30
2018-08-16T06:07:28.967Z,17.60
2018-08-16T06:10:05.316Z,17.70
2018-08-16T06:12:34.641Z,17.80
2018-08-16T06:15:04.257Z,18.00
2018-08-16T06:17:34.117Z,18.00
2018-08-16T06:20:03.762Z,18.10
2018-08-16T06:22:33.612Z,18.30
2018-08-16T06:25:03.975Z,18.40
2018-08-16T06:27:33.917Z,18.50
2018-08-16T06:30:30.155Z,18.60
2018-08-16T06:33:00.069Z,18.80
2018-08-16T06:35:30.539Z,19.00
2018-08-16T06:38:00.219Z,19.10
2018-08-16T06:41:00.127Z,19.30
2018-08-16T06:43:30.126Z,19.50
2018-08-16T06:46:01.542Z,19.70
2018-08-16T06:48:36.418Z,19.90
2018-08-16T06:51:06.054Z,20.10
2018-08-16T06:53:35.633Z,20.30
2018-08-16T06:56:05.768Z,20.50
2018-08-16T06:58:58.956Z,20.60
2018-08-16T07:01:51.366Z,20.80
2018-08-16T07:07:15.428Z,21.20
2018-08-16T07:09:44.130Z,21.40
2018-08-16T07:12:12.974Z,21.50
2018-08-16T07:14:42.180Z,21.60
2018-08-16T07:17:11.149Z,21.80
2018-08-16T07:19:39.855Z,22.00
2018-08-16T07:22:08.716Z,22.20
2018-08-16T07:24:38.658Z,22.30
2018-08-16T07:27:07.916Z,22.50
2018-08-16T07:29:36.920Z,22.60
2018-08-16T07:32:06.140Z,22.90
2018-08-16T07:37:39.399Z,23.20
2018-08-16T07:40:08.749Z,23.40
2018-08-16T07:42:40.757Z,23.60
2018-08-16T07:45:10.876Z,23.70
2018-08-16T07:47:39.759Z,23.80
2018-08-16T07:50:11.472Z,24.00
2018-08-16T07:52:42.409Z,24.20
2018-08-16T07:55:26.320Z,24.30
2018-08-16T07:57:58.293Z,24.50
2018-08-16T08:00:28.501Z,24.60
2018-08-16T08:02:58.587Z,24.70
2018-08-16T08:05:29.381Z,24.90
2018-08-16T08:07:59.153Z,25.00
2018-08-16T08:10:29.620Z,25.10
2018-08-16T08:12:59.225Z,25.20
2018-08-16T08:15:29.291Z,25.40
2018-08-16T08:17:59.025Z,25.70
2018-08-16T08:20:29.592Z,25.90
2018-08-16T08:22:59.480Z,25.90
2018-08-16T08:25:29.316Z,26.00
2018-08-16T08:28:05.869Z,25.80
2018-08-16T08:30:35.789Z,25.80
2018-08-16T08:33:05.501Z,26.00
2018-08-16T08:35:35.522Z,26.20
2018-08-16T08:38:08.467Z,26.50
2018-08-16T08:40:37.871Z,26.70
2018-08-16T08:43:07.432Z,26.90
2018-08-16T08:45:38.488Z,27.00
2018-08-16T08:48:08.642Z,27.20
2018-08-16T08:50:37.904Z,27.30
2018-08-16T08:53:20.962Z,27.40
2018-08-16T08:56:01.897Z,27.70
2018-08-16T08:58:52.923Z,28.00
2018-08-16T09:01:29.443Z,28.40
2018-08-16T09:04:05.651Z,28.40
2018-08-16T09:06:46.808Z,28.40
2018-08-16T09:09:26.169Z,28.50
2018-08-16T09:12:12.164Z,28.50
2018-08-16T09:14:56.870Z,28.60
2018-08-16T09:17:28.665Z,28.60
2018-08-16T09:20:11.616Z,28.40
2018-08-16T09:22:54.651Z,28.30
2018-08-16T09:25:30.600Z,28.20
2018-08-16T09:28:12.335Z,28.00
2018-08-16T09:30:57.688Z,28.00
2018-08-16T09:33:43.424Z,27.90
2018-08-16T09:36:25.023Z,27.70
2018-08-16T09:39:12.582Z,27.70
2018-08-16T09:41:54.873Z,27.50
2018-08-16T09:44:33.024Z,27.30
2018-08-16T09:47:20.132Z,27.20
2018-08-16T09:50:03.699Z,27.10
2018-08-16T09:52:46.116Z,27.00
2018-08-16T09:55:21.733Z,27.00
2018-08-16T09:57:56.806Z,27.00
2018-08-16T10:00:36.031Z,26.90
2018-08-16T10:03:17.863Z,26.90
2018-08-16T10:05:56.727Z,26.80
2018-08-16T10:08:36.072Z,26.70
2018-08-16T10:11:20.096Z,26.70
2018-08-16T10:13:59.732Z,26.70
2018-08-16T10:16:41.458Z,26.60
2018-08-16T10:19:23.698Z,26.60
2018-08-16T10:21:57.945Z,26.60
2018-08-16T10:24:34.720Z,26.60
2018-08-16T10:30:14.205Z,26.70
2018-08-16T10:32:55.027Z,26.70
2018-08-16T10:35:27.628Z,26.80
2018-08-16T10:38:04.319Z,26.80
2018-08-16T10:40:45.407Z,26.70
2018-08-16T10:43:24.320Z,26.60
2018-08-16T10:45:57.328Z,26.60
2018-08-16T10:48:44.470Z,26.60
2018-08-16T10:51:26.293Z,26.60
2018-08-16T10:54:02.433Z,26.60
2018-08-16T10:56:45.075Z,26.70
2018-08-16T10:59:20.400Z,26.70
2018-08-16T11:01:53.558Z,26.60
2018-08-16T11:04:25.920Z,26.50
2018-08-16T11:07:07.874Z,26.50
2018-08-16T11:09:51.605Z,26.50
2018-08-16T11:12:34.130Z,26.50
2018-08-16T11:15:15.023Z,26.50
2018-08-16T11:17:50.567Z,26.40
2018-08-16T11:20:29.396Z,26.50
2018-08-16T11:23:11.799Z,26.50
2018-08-16T11:25:51.767Z,26.60
2018-08-16T11:28:27.051Z,26.60
2018-08-16T11:31:05.128Z,26.60
2018-08-16T11:33:47.420Z,26.70
2018-08-16T11:36:25.781Z,26.70
2018-08-16T11:39:08.551Z,26.70
2018-08-16T11:41:50.301Z,26.70
2018-08-16T11:44:25.850Z,26.70
2018-08-16T11:47:09.496Z,26.80
2018-08-16T11:49:58.424Z,26.90
2018-08-16T11:52:35.099Z,27.00
2018-08-16T11:55:10.062Z,27.00
2018-08-16T11:57:51.136Z,27.00
2018-08-16T12:00:35.148Z,27.10
2018-08-16T12:03:17.461Z,27.10
2018-08-16T12:05:57.396Z,27.10
2018-08-16T12:08:42.865Z,27.30
2018-08-16T12:11:24.256Z,27.20
2018-08-16T12:14:08.468Z,27.30
2018-08-16T12:16:48.976Z,27.40
2018-08-16T12:19:27.060Z,27.50
2018-08-16T12:22:10.172Z,27.60
2018-08-16T12:24:57.301Z,27.60
2018-08-16T12:27:39.674Z,27.70
2018-08-16T12:30:18.399Z,27.80
2018-08-16T12:32:59.966Z,27.90
2018-08-16T12:35:40.381Z,27.90
2018-08-16T12:38:15.542Z,28.00
2018-08-16T12:40:51.906Z,28.00
2018-08-16T12:43:25.161Z,28.10
2018-08-16T12:45:59.577Z,28.00
2018-08-16T12:48:42.473Z,28.10
2018-08-16T12:51:22.913Z,28.10
2018-08-16T12:54:08.854Z,28.20
2018-08-16T12:56:52.144Z,28.30
2018-08-16T12:59:24.425Z,28.40
2018-08-16T13:02:05.481Z,28.50
2018-08-16T13:04:49.927Z,28.50
2018-08-16T13:07:24.740Z,28.60
2018-08-16T13:09:58.992Z,28.60
2018-08-16T13:12:41.930Z,28.60
2018-08-16T13:15:22.230Z,28.60
2018-08-16T13:17:53.486Z,28.80
2018-08-16T13:20:28.976Z,28.90
2018-08-16T13:23:07.682Z,28.90
2018-08-16T13:25:48.191Z,28.90
2018-08-16T13:28:26.756Z,29.00
2018-08-16T13:31:06.606Z,29.00
2018-08-16T13:33:41.524Z,29.00
2018-08-16T13:36:21.439Z,29.00
2018-08-16T13:39:03.393Z,29.00
2018-08-16T13:41:44.490Z,29.10
2018-08-16T13:44:20.139Z,29.10
2018-08-16T13:47:01.636Z,29.10
2018-08-16T13:49:45.664Z,29.20
2018-08-16T13:52:19.207Z,29.20
2018-08-16T13:55:04.149Z,29.30
2018-08-16T13:57:46.117Z,29.30
2018-08-16T14:00:20.332Z,29.30
2018-08-16T14:02:53.438Z,29.40
2018-08-16T14:05:33.031Z,29.40
2018-08-16T14:08:13.873Z,29.40
2018-08-16T14:10:59.585Z,29.40
2018-08-16T14:45:11.985Z,29.70
2018-08-16T14:47:59.544Z,29.60
2018-08-16T14:50:35.613Z,29.60
2018-08-16T14:53:23.652Z,29.60
2018-08-16T14:56:03.123Z,29.50
2018-08-16T14:58:48.233Z,29.50
2018-08-16T15:04:11.777Z,29.40
2018-08-16T15:06:52.519Z,29.30
2018-08-16T15:09:38.352Z,29.30
2018-08-16T15:12:20.553Z,29.20
2018-08-16T15:15:05.553Z,29.20
2018-08-16T15:17:44.447Z,29.10
2018-08-16T15:20:29.079Z,29.10
2018-08-16T15:23:04.633Z,29.10
2018-08-16T15:25:45.742Z,29.10
2018-08-16T15:28:20.299Z,28.90
2018-08-16T15:31:04.589Z,28.90
2018-08-16T15:33:46.699Z,28.90
2018-08-16T15:36:22.204Z,28.80
2018-08-16T15:39:08.356Z,28.80
2018-08-16T15:41:48.778Z,28.70
2018-08-16T15:44:31.362Z,28.70
2018-08-16T15:47:12.985Z,28.60
2018-08-16T15:49:53.380Z,28.60
2018-08-16T15:52:35.307Z,28.60
2018-08-16T15:55:17.101Z,28.50
2018-08-16T15:57:58.155Z,28.40
2018-08-16T16:00:30.102Z,28.40
2018-08-16T16:03:09.708Z,28.40
2018-08-16T16:05:42.006Z,28.30
2018-08-16T16:08:18.868Z,28.30
2018-08-16T16:10:52.336Z,28.30
2018-08-16T16:13:35.112Z,28.20
2018-08-16T16:16:17.508Z,28.20
2018-08-16T16:18:58.965Z,28.10
2018-08-16T16:21:40.757Z,28.10
2018-08-16T16:24:17.130Z,28.10
2018-08-16T16:26:55.898Z,28.00
2018-08-16T16:29:41.222Z,28.00
2018-08-16T16:32:14.840Z,28.00
2018-08-16T16:34:54.830Z,27.90
2018-08-16T16:37:52.929Z,27.90
2018-08-16T16:40:31.227Z,27.80
2018-08-16T16:43:11.034Z,27.80
2018-08-16T16:46:01.481Z,27.70
2018-08-16T16:48:35.705Z,27.70
2018-08-16T16:51:20.666Z,27.70
2018-08-16T16:54:14.440Z,27.60
2018-08-16T16:59:42.891Z,27.40
2018-08-16T17:02:27.293Z,27.30
2018-08-16T17:05:09.475Z,27.20
2018-08-16T17:07:49.801Z,27.10
2018-08-16T17:10:25.385Z,26.90
2018-08-16T17:13:06.545Z,26.90
2018-08-16T17:15:37.753Z,26.90
2018-08-16T17:18:20.199Z,26.90
2018-08-16T17:21:09.136Z,26.80
2018-08-16T17:23:52.828Z,26.70
2018-08-16T17:26:29.205Z,26.70
2018-08-16T17:29:02.585Z,26.60
2018-08-16T17:31:47.043Z,26.50
2018-08-16T17:34:29.158Z,26.40
2018-08-16T17:37:13.730Z,26.30
2018-08-16T17:39:58.315Z,26.20
2018-08-16T17:42:30.730Z,26.00
2018-08-16T17:45:11.094Z,25.90
2018-08-16T17:47:52.960Z,25.80
2018-08-16T17:53:47.099Z,25.70
2018-08-16T17:56:33.238Z,25.40
2018-08-16T17:59:17.192Z,25.30
2018-08-16T18:02:01.731Z,25.00
2018-08-16T18:04:48.148Z,24.80
2018-08-16T18:07:32.919Z,24.60
2018-08-16T18:10:13.821Z,24.40
2018-08-16T18:12:46.075Z,24.30
2018-08-16T18:18:12.206Z,24.00
2018-08-16T18:20:48.347Z,23.90
2018-08-16T18:23:29.003Z,23.70
2018-08-16T18:26:13.551Z,23.60
2018-08-16T18:29:01.969Z,23.40
2018-08-16T18:31:37.826Z,23.30
2018-08-16T18:34:12.541Z,23.20
2018-08-16T18:36:41.239Z,22.90
2018-08-16T18:39:11.027Z,22.80
2018-08-16T18:41:40.016Z,22.60
2018-08-16T18:44:08.917Z,22.40
2018-08-16T18:46:37.658Z,22.20
2018-08-16T18:49:06.684Z,22.10
2018-08-16T18:51:36.032Z,21.90
2018-08-16T18:54:05.487Z,21.70
2018-08-16T18:56:34.900Z,21.50
2018-08-16T18:59:04.535Z,21.40
2018-08-16T19:01:34.965Z,21.20
2018-08-16T19:04:05.072Z,21.10
2018-08-16T19:06:34.528Z,21.00
2018-08-16T19:09:04.991Z,20.80
2018-08-16T19:11:34.495Z,20.80
2018-08-16T19:14:03.802Z,20.70
2018-08-16T19:16:33.266Z,20.60
2018-08-16T19:19:02.928Z,20.50
2018-08-16T19:21:32.408Z,20.30
2018-08-16T19:24:02.184Z,20.30
2018-08-16T19:26:31.735Z,20.20
2018-08-16T19:29:01.285Z,20.10
2018-08-16T19:31:30.535Z,20.10
2018-08-16T19:34:01.183Z,20.00
2018-08-16T19:36:30.555Z,19.90
2018-08-16T19:39:00.535Z,19.90
2018-08-16T19:41:30.398Z,19.80
2018-08-16T19:43:59.999Z,19.70
2018-08-16T19:46:30.030Z,19.70
2018-08-16T19:48:59.724Z,19.60
2018-08-16T19:51:29.709Z,19.60
2018-08-16T19:53:59.406Z,19.60
2018-08-16T19:56:29.594Z,19.50
2018-08-16T19:58:59.235Z,19.40
2018-08-16T20:01:28.740Z,19.40
2018-08-16T20:03:58.212Z,19.30
2018-08-16T20:06:27.670Z,19.30
2018-08-16T20:08:57.307Z,19.20
2018-08-16T20:11:27.271Z,19.20
2018-08-16T20:13:57.415Z,19.10
2018-08-16T20:16:27.954Z,19.00
2018-08-16T20:18:57.351Z,19.00
2018-08-16T20:21:27.584Z,18.90
2018-08-16T20:23:57.323Z,18.90
2018-08-16T20:26:28.547Z,18.80
2018-08-16T20:28:58.004Z,18.80
2018-08-16T20:31:27.981Z,18.70
2018-08-16T20:33:57.172Z,18.60
2018-08-16T20:36:26.595Z,18.60
2018-08-16T20:38:57.126Z,18.50
2018-08-16T20:41:27.074Z,18.40
2018-08-16T20:43:56.687Z,18.40
2018-08-16T20:46:26.654Z,18.30
2018-08-16T20:48:56.530Z,18.20
2018-08-16T20:51:27.563Z,18.20
2018-08-16T20:53:57.206Z,18.10
2018-08-16T20:56:27.134Z,18.10
2018-08-16T20:58:57.030Z,18.00
2018-08-16T21:01:26.891Z,17.90
2018-08-16T21:03:57.233Z,17.90
2018-08-16T21:06:27.254Z,17.80
2018-08-16T21:08:57.277Z,17.70
2018-08-16T21:11:26.953Z,17.70
2018-08-16T21:13:57.184Z,17.70
2018-08-16T21:16:27.358Z,17.60
2018-08-16T21:18:57.314Z,17.50
2018-08-16T21:21:27.023Z,17.50
2018-08-16T21:23:57.052Z,17.40
2018-08-16T21:26:26.506Z,17.30
2018-08-16T21:28:56.562Z,17.30
2018-08-16T21:31:29.349Z,17.30
2018-08-16T21:33:58.906Z,17.20
2018-08-16T21:36:28.456Z,17.20
2018-08-16T21:38:58.474Z,17.10
2018-08-16T21:41:28.128Z,17.10
2018-08-16T21:43:57.490Z,17.10
2018-08-16T21:46:27.559Z,17.00
2018-08-16T21:48:57.341Z,16.90
2018-08-16T21:51:27.577Z,16.90
2018-08-16T21:53:57.591Z,16.90
2018-08-16T21:56:27.405Z,16.80
2018-08-16T21:58:57.131Z,16.70
2018-08-16T22:01:27.408Z,16.70
2018-08-16T22:03:56.838Z,16.70
2018-08-16T22:06:37.200Z,16.60
2018-08-16T22:09:07.373Z,16.60
2018-08-16T22:11:36.918Z,16.50
2018-08-16T22:14:06.973Z,16.50
2018-08-16T22:16:36.572Z,16.50
2018-08-16T22:19:05.764Z,16.50
2018-08-16T22:21:35.313Z,16.40
2018-08-16T22:24:04.905Z,16.40
2018-08-16T22:26:34.624Z,16.30
2018-08-16T22:29:04.063Z,16.30
2018-08-16T22:31:33.342Z,16.30
2018-08-16T22:34:02.859Z,16.20
2018-08-16T22:36:32.452Z,16.20
2018-08-16T22:39:02.083Z,16.20
2018-08-16T22:41:32.540Z,16.10
2018-08-16T22:44:02.597Z,16.10
2018-08-16T22:46:32.210Z,16.10
2018-08-16T22:49:01.920Z,16.00
2018-08-16T22:51:31.625Z,16.00
2018-08-16T22:54:01.191Z,16.00
2018-08-16T22:56:31.041Z,15.90
2018-08-16T22:59:00.341Z,15.90
2018-08-16T23:01:29.730Z,15.90
2018-08-16T23:03:59.053Z,15.90
2018-08-16T23:06:28.343Z,15.80
2018-08-16T23:08:58.077Z,15.80
2018-08-16T23:11:27.570Z,15.80
2018-08-16T23:13:57.112Z,15.70
2018-08-16T23:16:26.928Z,15.70
2018-08-16T23:18:56.783Z,15.70
2018-08-16T23:21:27.108Z,15.60
2018-08-16T23:23:57.685Z,15.60
2018-08-16T23:26:28.806Z,15.50
2018-08-16T23:28:58.752Z,15.50
2018-08-16T23:31:29.455Z,15.50
2018-08-16T23:33:59.852Z,15.50
2018-08-16T23:36:29.848Z,15.50
2018-08-16T23:38:59.672Z,15.40
2018-08-16T23:41:29.778Z,15.40
2018-08-16T23:43:59.766Z,15.40
2018-08-16T23:46:29.263Z,15.40
2018-08-16T23:49:04.658Z,15.40
2018-08-16T23:51:34.535Z,15.30
2018-08-16T23:54:27.116Z,15.30
2018-08-16T23:56:59.092Z,15.20
2018-08-16T23:59:39.005Z,15.20
